sensor_id;sensor_type;location;lat;lon;timestamp;temperature;humidity
61807;DHT22;47726;52.766;6.606;2023-04-24T00:00:18;11.60;99.90
61807;DHT22;47726;52.766;6.606;2023-04-24T00:02:44;11.50;99.90
61807;DHT22;47726;52.766;6.606;2023-04-24T00:05:17;11.50;99.90
61807;DHT22;47726;52.766;6.606;2023-04-24T00:07:46;11.50;99.90
61807;DHT22;47726;52.766;6.606;2023-04-24T00:10:11;11.50;99.90
61807;DHT22;47726;52.766;6.606;2023-04-24T00:12:38;11.50;99.90
61807;DHT22;47726;52.766;6.606;2023-04-24T00:15:04;11.50;99.90
61807;DHT22;47726;52.766;6.606;2023-04-24T00:17:30;11.40;99.90
61807;DHT22;47726;52.766;6.606;2023-04-24T00:19:56;11.40;99.90
61807;DHT22;47726;52.766;6.606;2023-04-24T00:22:27;11.40;99.90
61807;DHT22;47726;52.766;6.606;2023-04-24T00:24:54;11.40;99.90
61807;DHT22;47726;52.766;6.606;2023-04-24T00:27:20;11.40;99.90
61807;DHT22;47726;52.766;6.606;2023-04-24T00:29:46;11.30;99.90
61807;DHT22;47726;52.766;6.606;2023-04-24T00:32:11;11.30;99.90
61807;DHT22;47726;52.766;6.606;2023-04-24T00:34:37;11.30;99.90
61807;DHT22;47726;52.766;6.606;2023-04-24T00:37:02;11.30;99.90
61807;DHT22;47726;52.766;6.606;2023-04-24T00:39:28;11.20;99.90
61807;DHT22;47726;52.766;6.606;2023-04-24T00:41:54;11.20;99.90
61807;DHT22;47726;52.766;6.606;2023-04-24T00:44:20;11.30;99.90
61807;DHT22;47726;52.766;6.606;2023-04-24T00:46:46;11.30;99.90
61807;DHT22;47726;52.766;6.606;2023-04-24T00:49:13;11.20;99.90
61807;DHT22;47726;52.766;6.606;2023-04-24T00:51:39;11.20;99.90
61807;DHT22;47726;52.766;6.606;2023-04-24T00:54:06;11.20;99.90
61807;DHT22;47726;52.766;6.606;2023-04-24T00:56:31;11.20;99.90
61807;DHT22;47726;52.766;6.606;2023-04-24T00:58:57;11.20;99.90
61807;DHT22;47726;52.766;6.606;2023-04-24T01:01:23;11.10;99.90
61807;DHT22;47726;52.766;6.606;2023-04-24T01:03:50;11.10;99.90
61807;DHT22;47726;52.766;6.606;2023-04-24T01:06:16;11.10;99.90
61807;DHT22;47726;52.766;6.606;2023-04-24T01:08:43;11.10;99.90
61807;DHT22;47726;52.766;6.606;2023-04-24T01:11:10;11.10;99.90
61807;DHT22;47726;52.766;6.606;2023-04-24T01:13:36;11.10;99.90
61807;DHT22;47726;52.766;6.606;2023-04-24T01:16:02;11.10;99.90
61807;DHT22;47726;52.766;6.606;2023-04-24T01:18:28;11.00;99.90
61807;DHT22;47726;52.766;6.606;2023-04-24T01:20:57;11.00;99.90
61807;DHT22;47726;52.766;6.606;2023-04-24T01:23:23;10.90;99.90
61807;DHT22;47726;52.766;6.606;2023-04-24T01:25:49;10.90;99.90
61807;DHT22;47726;52.766;6.606;2023-04-24T01:28:16;10.90;99.90
61807;DHT22;47726;52.766;6.606;2023-04-24T01:30:42;10.80;99.90
61807;DHT22;47726;52.766;6.606;2023-04-24T01:33:08;10.70;99.90
61807;DHT22;47726;52.766;6.606;2023-04-24T01:35:34;10.70;99.90
61807;DHT22;47726;52.766;6.606;2023-04-24T01:38:01;10.70;99.90
61807;DHT22;47726;52.766;6.606;2023-04-24T01:40:27;10.70;99.90
61807;DHT22;47726;52.766;6.606;2023-04-24T01:42:52;10.60;99.90
61807;DHT22;47726;52.766;6.606;2023-04-24T01:45:18;10.60;99.90
61807;DHT22;47726;52.766;6.606;2023-04-24T01:47:45;10.60;99.90
61807;DHT22;47726;52.766;6.606;2023-04-24T01:50:11;10.50;99.90
61807;DHT22;47726;52.766;6.606;2023-04-24T01:52:37;10.40;99.90
61807;DHT22;47726;52.766;6.606;2023-04-24T01:55:03;10.40;99.90
61807;DHT22;47726;52.766;6.606;2023-04-24T01:57:30;10.40;99.90
61807;DHT22;47726;52.766;6.606;2023-04-24T01:59:56;10.30;99.90
61807;DHT22;47726;52.766;6.606;2023-04-24T02:02:22;10.30;99.90
61807;DHT22;47726;52.766;6.606;2023-04-24T02:04:49;10.30;99.90
61807;DHT22;47726;52.766;6.606;2023-04-24T02:07:15;10.30;99.90
61807;DHT22;47726;52.766;6.606;2023-04-24T02:09:41;10.30;99.90
61807;DHT22;47726;52.766;6.606;2023-04-24T02:12:07;10.30;99.90
61807;DHT22;47726;52.766;6.606;2023-04-24T02:14:32;10.20;99.90
61807;DHT22;47726;52.766;6.606;2023-04-24T02:16:58;10.20;99.90
61807;DHT22;47726;52.766;6.606;2023-04-24T02:19:23;10.20;99.90
61807;DHT22;47726;52.766;6.606;2023-04-24T02:21:49;10.20;99.90
61807;DHT22;47726;52.766;6.606;2023-04-24T02:24:15;10.20;99.90
61807;DHT22;47726;52.766;6.606;2023-04-24T02:26:41;10.20;99.90
61807;DHT22;47726;52.766;6.606;2023-04-24T02:29:06;10.20;99.90
61807;DHT22;47726;52.766;6.606;2023-04-24T02:31:32;10.20;99.90
61807;DHT22;47726;52.766;6.606;2023-04-24T02:33:57;10.20;99.90
61807;DHT22;47726;52.766;6.606;2023-04-24T02:36:23;10.20;99.90
61807;DHT22;47726;52.766;6.606;2023-04-24T02:38:48;10.20;99.90
61807;DHT22;47726;52.766;6.606;2023-04-24T02:41:14;10.20;99.90
61807;DHT22;47726;52.766;6.606;2023-04-24T02:43:40;10.20;99.90
61807;DHT22;47726;52.766;6.606;2023-04-24T02:46:05;10.20;99.90
61807;DHT22;47726;52.766;6.606;2023-04-24T02:48:31;10.20;99.90
61807;DHT22;47726;52.766;6.606;2023-04-24T02:50:56;10.20;99.90
61807;DHT22;47726;52.766;6.606;2023-04-24T02:53:23;10.20;99.90
61807;DHT22;47726;52.766;6.606;2023-04-24T02:55:49;10.20;99.90
61807;DHT22;47726;52.766;6.606;2023-04-24T02:58:14;10.20;99.90
61807;DHT22;47726;52.766;6.606;2023-04-24T03:00:41;10.20;99.90
61807;DHT22;47726;52.766;6.606;2023-04-24T03:03:06;10.20;99.90
61807;DHT22;47726;52.766;6.606;2023-04-24T03:05:32;10.30;99.90
61807;DHT22;47726;52.766;6.606;2023-04-24T03:07:58;10.30;99.90
61807;DHT22;47726;52.766;6.606;2023-04-24T03:10:23;10.30;99.90
61807;DHT22;47726;52.766;6.606;2023-04-24T03:12:49;10.30;99.90
61807;DHT22;47726;52.766;6.606;2023-04-24T03:15:15;10.30;99.90
61807;DHT22;47726;52.766;6.606;2023-04-24T03:17:41;10.20;99.90
61807;DHT22;47726;52.766;6.606;2023-04-24T03:20:08;10.20;99.90
61807;DHT22;47726;52.766;6.606;2023-04-24T03:22:34;10.20;99.90
61807;DHT22;47726;52.766;6.606;2023-04-24T03:25:00;10.20;99.90
61807;DHT22;47726;52.766;6.606;2023-04-24T03:27:26;10.20;99.90
61807;DHT22;47726;52.766;6.606;2023-04-24T03:29:51;10.10;99.90
61807;DHT22;47726;52.766;6.606;2023-04-24T03:32:21;10.10;99.90
61807;DHT22;47726;52.766;6.606;2023-04-24T03:34:46;10.10;99.90
61807;DHT22;47726;52.766;6.606;2023-04-24T03:37:12;10.10;99.90
61807;DHT22;47726;52.766;6.606;2023-04-24T03:39:37;10.10;99.90
61807;DHT22;47726;52.766;6.606;2023-04-24T03:42:03;10.10;99.90
61807;DHT22;47726;52.766;6.606;2023-04-24T03:44:28;10.10;99.90
61807;DHT22;47726;52.766;6.606;2023-04-24T03:46:54;10.10;99.90
61807;DHT22;47726;52.766;6.606;2023-04-24T03:49:20;10.10;99.90
61807;DHT22;47726;52.766;6.606;2023-04-24T03:51:45;10.10;99.90
61807;DHT22;47726;52.766;6.606;2023-04-24T03:54:11;10.00;99.90
61807;DHT22;47726;52.766;6.606;2023-04-24T03:56:38;10.00;99.90
61807;DHT22;47726;52.766;6.606;2023-04-24T03:59:03;10.00;99.90
61807;DHT22;47726;52.766;6.606;2023-04-24T04:01:29;10.10;99.90
61807;DHT22;47726;52.766;6.606;2023-04-24T04:03:56;10.00;99.90
61807;DHT22;47726;52.766;6.606;2023-04-24T04:06:21;10.10;99.90
61807;DHT22;47726;52.766;6.606;2023-04-24T04:08:47;10.00;99.90
61807;DHT22;47726;52.766;6.606;2023-04-24T04:11:13;10.00;99.90
61807;DHT22;47726;52.766;6.606;2023-04-24T04:13:38;10.00;99.90
61807;DHT22;47726;52.766;6.606;2023-04-24T04:16:04;10.00;99.90
61807;DHT22;47726;52.766;6.606;2023-04-24T04:18:30;10.00;99.90
61807;DHT22;47726;52.766;6.606;2023-04-24T04:20:55;10.00;99.90
61807;DHT22;47726;52.766;6.606;2023-04-24T04:23:22;10.00;99.90
61807;DHT22;47726;52.766;6.606;2023-04-24T04:25:48;10.00;99.90
61807;DHT22;47726;52.766;6.606;2023-04-24T04:28:13;9.90;99.90
61807;DHT22;47726;52.766;6.606;2023-04-24T04:30:40;9.90;99.90
61807;DHT22;47726;52.766;6.606;2023-04-24T04:33:06;9.90;99.90
61807;DHT22;47726;52.766;6.606;2023-04-24T04:35:33;10.00;99.90
61807;DHT22;47726;52.766;6.606;2023-04-24T04:37:59;10.00;99.90
61807;DHT22;47726;52.766;6.606;2023-04-24T04:40:25;10.00;99.90
61807;DHT22;47726;52.766;6.606;2023-04-24T04:42:50;9.90;99.90
61807;DHT22;47726;52.766;6.606;2023-04-24T04:45:18;9.90;99.90
61807;DHT22;47726;52.766;6.606;2023-04-24T04:47:46;9.90;99.90
61807;DHT22;47726;52.766;6.606;2023-04-24T04:50:11;9.90;99.90
61807;DHT22;47726;52.766;6.606;2023-04-24T04:52:37;9.90;99.90
61807;DHT22;47726;52.766;6.606;2023-04-24T04:55:02;9.90;99.90
61807;DHT22;47726;52.766;6.606;2023-04-24T04:57:28;9.90;99.90
61807;DHT22;47726;52.766;6.606;2023-04-24T04:59:54;9.90;99.90
61807;DHT22;47726;52.766;6.606;2023-04-24T05:02:20;9.90;99.90
61807;DHT22;47726;52.766;6.606;2023-04-24T05:04:45;9.90;99.90
61807;DHT22;47726;52.766;6.606;2023-04-24T05:07:11;9.80;99.90
61807;DHT22;47726;52.766;6.606;2023-04-24T05:09:37;9.80;99.90
61807;DHT22;47726;52.766;6.606;2023-04-24T05:12:03;9.80;99.90
61807;DHT22;47726;52.766;6.606;2023-04-24T05:14:28;9.90;99.90
61807;DHT22;47726;52.766;6.606;2023-04-24T05:16:54;9.80;99.90
61807;DHT22;47726;52.766;6.606;2023-04-24T05:19:20;9.90;99.90
61807;DHT22;47726;52.766;6.606;2023-04-24T05:21:45;9.90;99.90
61807;DHT22;47726;52.766;6.606;2023-04-24T05:24:11;9.80;99.90
61807;DHT22;47726;52.766;6.606;2023-04-24T05:26:36;9.80;99.90
61807;DHT22;47726;52.766;6.606;2023-04-24T05:29:03;9.80;99.90
61807;DHT22;47726;52.766;6.606;2023-04-24T05:31:29;9.90;99.90
61807;DHT22;47726;52.766;6.606;2023-04-24T05:33:55;9.80;99.90
61807;DHT22;47726;52.766;6.606;2023-04-24T05:36:20;9.90;99.90
61807;DHT22;47726;52.766;6.606;2023-04-24T05:38:46;9.90;99.90
61807;DHT22;47726;52.766;6.606;2023-04-24T05:41:11;9.90;99.90
61807;DHT22;47726;52.766;6.606;2023-04-24T05:43:37;9.90;99.90
61807;DHT22;47726;52.766;6.606;2023-04-24T05:46:02;9.90;99.90
61807;DHT22;47726;52.766;6.606;2023-04-24T05:48:28;9.90;99.90
61807;DHT22;47726;52.766;6.606;2023-04-24T05:50:53;9.90;99.90
61807;DHT22;47726;52.766;6.606;2023-04-24T05:53:19;9.90;99.90
61807;DHT22;47726;52.766;6.606;2023-04-24T05:55:45;9.90;99.90
61807;DHT22;47726;52.766;6.606;2023-04-24T05:58:11;9.90;99.90
61807;DHT22;47726;52.766;6.606;2023-04-24T06:00:37;9.90;99.90
61807;DHT22;47726;52.766;6.606;2023-04-24T06:03:05;9.90;99.90
61807;DHT22;47726;52.766;6.606;2023-04-24T06:05:31;9.90;99.90
61807;DHT22;47726;52.766;6.606;2023-04-24T06:07:56;10.00;99.90
61807;DHT22;47726;52.766;6.606;2023-04-24T06:10:22;10.00;99.90
61807;DHT22;47726;52.766;6.606;2023-04-24T06:12:47;10.10;99.90
61807;DHT22;47726;52.766;6.606;2023-04-24T06:15:13;10.10;99.90
61807;DHT22;47726;52.766;6.606;2023-04-24T06:17:38;10.10;99.90
61807;DHT22;47726;52.766;6.606;2023-04-24T06:20:05;10.10;99.90
61807;DHT22;47726;52.766;6.606;2023-04-24T06:22:32;10.20;99.90
61807;DHT22;47726;52.766;6.606;2023-04-24T06:24:57;10.20;99.90
61807;DHT22;47726;52.766;6.606;2023-04-24T06:27:23;10.20;99.90
61807;DHT22;47726;52.766;6.606;2023-04-24T06:29:48;10.30;99.90
61807;DHT22;47726;52.766;6.606;2023-04-24T06:32:21;10.30;99.90
61807;DHT22;47726;52.766;6.606;2023-04-24T06:34:47;10.30;99.90
61807;DHT22;47726;52.766;6.606;2023-04-24T06:37:13;10.40;99.90
61807;DHT22;47726;52.766;6.606;2023-04-24T06:39:39;10.40;99.90
61807;DHT22;47726;52.766;6.606;2023-04-24T06:42:05;10.40;99.90
61807;DHT22;47726;52.766;6.606;2023-04-24T06:44:30;10.40;99.90
61807;DHT22;47726;52.766;6.606;2023-04-24T06:46:56;10.40;99.90
61807;DHT22;47726;52.766;6.606;2023-04-24T06:49:21;10.40;99.90
61807;DHT22;47726;52.766;6.606;2023-04-24T06:51:47;10.40;99.90
61807;DHT22;47726;52.766;6.606;2023-04-24T06:54:12;10.50;99.90
61807;DHT22;47726;52.766;6.606;2023-04-24T06:56:38;10.50;99.90
61807;DHT22;47726;52.766;6.606;2023-04-24T06:59:03;10.50;99.90
61807;DHT22;47726;52.766;6.606;2023-04-24T07:01:29;10.50;99.90
61807;DHT22;47726;52.766;6.606;2023-04-24T07:03:55;10.50;99.90
61807;DHT22;47726;52.766;6.606;2023-04-24T07:06:20;10.50;99.90
61807;DHT22;47726;52.766;6.606;2023-04-24T07:08:48;10.50;99.90
61807;DHT22;47726;52.766;6.606;2023-04-24T07:11:14;10.50;99.90
61807;DHT22;47726;52.766;6.606;2023-04-24T07:13:40;10.50;99.90
61807;DHT22;47726;52.766;6.606;2023-04-24T07:16:07;10.50;99.90
61807;DHT22;47726;52.766;6.606;2023-04-24T07:18:34;10.50;99.90
61807;DHT22;47726;52.766;6.606;2023-04-24T07:21:00;10.50;99.90
61807;DHT22;47726;52.766;6.606;2023-04-24T07:23:26;10.50;99.90
61807;DHT22;47726;52.766;6.606;2023-04-24T07:25:51;10.50;99.90
61807;DHT22;47726;52.766;6.606;2023-04-24T07:28:17;10.60;99.90
61807;DHT22;47726;52.766;6.606;2023-04-24T07:30:43;10.60;99.90
61807;DHT22;47726;52.766;6.606;2023-04-24T07:33:09;10.60;99.90
61807;DHT22;47726;52.766;6.606;2023-04-24T07:35:36;10.60;99.90
61807;DHT22;47726;52.766;6.606;2023-04-24T07:38:02;10.60;99.90
61807;DHT22;47726;52.766;6.606;2023-04-24T07:40:27;10.60;99.90
61807;DHT22;47726;52.766;6.606;2023-04-24T07:42:53;10.60;99.90
61807;DHT22;47726;52.766;6.606;2023-04-24T07:45:18;10.60;99.90
61807;DHT22;47726;52.766;6.606;2023-04-24T07:47:44;10.60;99.90
61807;DHT22;47726;52.766;6.606;2023-04-24T07:50:11;10.60;99.90
61807;DHT22;47726;52.766;6.606;2023-04-24T07:52:38;10.60;99.90
61807;DHT22;47726;52.766;6.606;2023-04-24T07:55:04;10.60;99.90
61807;DHT22;47726;52.766;6.606;2023-04-24T07:57:30;10.60;99.90
61807;DHT22;47726;52.766;6.606;2023-04-24T07:59:55;10.60;99.90
61807;DHT22;47726;52.766;6.606;2023-04-24T08:02:21;10.60;99.90
61807;DHT22;47726;52.766;6.606;2023-04-24T08:04:52;10.60;99.90
61807;DHT22;47726;52.766;6.606;2023-04-24T08:07:19;10.50;99.90
61807;DHT22;47726;52.766;6.606;2023-04-24T08:09:45;10.50;99.90
61807;DHT22;47726;52.766;6.606;2023-04-24T08:12:10;10.50;99.90
61807;DHT22;47726;52.766;6.606;2023-04-24T08:14:36;10.50;99.90
61807;DHT22;47726;52.766;6.606;2023-04-24T08:17:01;10.50;99.90
61807;DHT22;47726;52.766;6.606;2023-04-24T08:19:27;10.50;99.90
61807;DHT22;47726;52.766;6.606;2023-04-24T08:21:53;10.50;99.90
61807;DHT22;47726;52.766;6.606;2023-04-24T08:24:18;10.50;99.90
61807;DHT22;47726;52.766;6.606;2023-04-24T08:26:44;10.60;99.90
61807;DHT22;47726;52.766;6.606;2023-04-24T08:29:10;10.50;99.90
61807;DHT22;47726;52.766;6.606;2023-04-24T08:31:36;10.60;99.90
61807;DHT22;47726;52.766;6.606;2023-04-24T08:34:01;10.60;99.90
61807;DHT22;47726;52.766;6.606;2023-04-24T08:36:27;10.60;99.90
61807;DHT22;47726;52.766;6.606;2023-04-24T08:38:52;10.60;99.90
61807;DHT22;47726;52.766;6.606;2023-04-24T08:41:19;10.60;99.90
61807;DHT22;47726;52.766;6.606;2023-04-24T08:43:47;10.60;99.90
61807;DHT22;47726;52.766;6.606;2023-04-24T08:46:15;10.50;99.90
61807;DHT22;47726;52.766;6.606;2023-04-24T08:48:42;10.50;99.90
61807;DHT22;47726;52.766;6.606;2023-04-24T08:51:08;10.50;99.90
61807;DHT22;47726;52.766;6.606;2023-04-24T08:53:35;10.50;99.90
61807;DHT22;47726;52.766;6.606;2023-04-24T08:56:01;10.50;99.90
61807;DHT22;47726;52.766;6.606;2023-04-24T08:58:27;10.50;99.90
61807;DHT22;47726;52.766;6.606;2023-04-24T09:00:57;10.50;99.90
61807;DHT22;47726;52.766;6.606;2023-04-24T09:03:24;10.50;99.90
61807;DHT22;47726;52.766;6.606;2023-04-24T09:05:50;10.50;99.90
61807;DHT22;47726;52.766;6.606;2023-04-24T09:08:19;10.50;99.90
61807;DHT22;47726;52.766;6.606;2023-04-24T09:10:46;10.50;99.90
61807;DHT22;47726;52.766;6.606;2023-04-24T09:13:12;10.40;99.90
61807;DHT22;47726;52.766;6.606;2023-04-24T09:15:39;10.40;99.90
61807;DHT22;47726;52.766;6.606;2023-04-24T09:18:05;10.30;99.90
61807;DHT22;47726;52.766;6.606;2023-04-24T09:20:31;10.30;99.90
61807;DHT22;47726;52.766;6.606;2023-04-24T09:22:58;10.30;99.90
61807;DHT22;47726;52.766;6.606;2023-04-24T09:25:34;10.30;99.90
61807;DHT22;47726;52.766;6.606;2023-04-24T09:28:04;10.30;99.90
61807;DHT22;47726;52.766;6.606;2023-04-24T09:30:32;10.30;99.90
61807;DHT22;47726;52.766;6.606;2023-04-24T09:33:11;10.20;99.90
61807;DHT22;47726;52.766;6.606;2023-04-24T09:35:50;10.20;99.90
61807;DHT22;47726;52.766;6.606;2023-04-24T09:38:16;10.20;99.90
61807;DHT22;47726;52.766;6.606;2023-04-24T09:40:41;10.10;99.90
61807;DHT22;47726;52.766;6.606;2023-04-24T09:43:11;10.10;99.90
61807;DHT22;47726;52.766;6.606;2023-04-24T09:45:38;10.10;99.90
61807;DHT22;47726;52.766;6.606;2023-04-24T09:48:04;10.10;99.90
61807;DHT22;47726;52.766;6.606;2023-04-24T09:50:32;10.10;99.90
61807;DHT22;47726;52.766;6.606;2023-04-24T09:53:01;10.00;99.90
61807;DHT22;47726;52.766;6.606;2023-04-24T09:55:27;10.00;99.90
61807;DHT22;47726;52.766;6.606;2023-04-24T09:57:59;10.00;99.90
61807;DHT22;47726;52.766;6.606;2023-04-24T10:00:27;10.00;99.90
61807;DHT22;47726;52.766;6.606;2023-04-24T10:03:01;10.00;99.90
61807;DHT22;47726;52.766;6.606;2023-04-24T10:05:29;10.00;99.90
61807;DHT22;47726;52.766;6.606;2023-04-24T10:08:06;10.00;99.90
61807;DHT22;47726;52.766;6.606;2023-04-24T10:10:37;10.00;99.90
61807;DHT22;47726;52.766;6.606;2023-04-24T10:13:04;10.00;99.90
61807;DHT22;47726;52.766;6.606;2023-04-24T10:15:30;10.00;99.90
61807;DHT22;47726;52.766;6.606;2023-04-24T10:18:00;10.10;99.90
61807;DHT22;47726;52.766;6.606;2023-04-24T10:20:27;10.10;99.90
61807;DHT22;47726;52.766;6.606;2023-04-24T10:22:57;10.10;99.90
61807;DHT22;47726;52.766;6.606;2023-04-24T10:25:31;10.20;99.90
61807;DHT22;47726;52.766;6.606;2023-04-24T10:27:58;10.20;99.90
61807;DHT22;47726;52.766;6.606;2023-04-24T10:30:26;10.10;99.90
61807;DHT22;47726;52.766;6.606;2023-04-24T10:32:52;10.10;99.90
61807;DHT22;47726;52.766;6.606;2023-04-24T10:35:18;10.10;99.90
61807;DHT22;47726;52.766;6.606;2023-04-24T10:37:51;10.10;99.90
61807;DHT22;47726;52.766;6.606;2023-04-24T10:40:26;10.00;99.90
61807;DHT22;47726;52.766;6.606;2023-04-24T10:42:52;9.90;99.90
61807;DHT22;47726;52.766;6.606;2023-04-24T10:45:22;9.90;99.90
61807;DHT22;47726;52.766;6.606;2023-04-24T10:47:59;9.80;99.90
61807;DHT22;47726;52.766;6.606;2023-04-24T10:50:27;9.80;99.90
61807;DHT22;47726;52.766;6.606;2023-04-24T10:52:55;9.70;99.90
61807;DHT22;47726;52.766;6.606;2023-04-24T10:55:50;9.70;99.90
61807;DHT22;47726;52.766;6.606;2023-04-24T10:58:16;9.70;99.90
61807;DHT22;47726;52.766;6.606;2023-04-24T11:00:56;9.70;99.90
61807;DHT22;47726;52.766;6.606;2023-04-24T11:03:32;9.80;99.90
61807;DHT22;47726;52.766;6.606;2023-04-24T11:06:07;9.80;99.90
61807;DHT22;47726;52.766;6.606;2023-04-24T11:08:44;9.80;99.90
61807;DHT22;47726;52.766;6.606;2023-04-24T11:11:15;9.80;99.90
61807;DHT22;47726;52.766;6.606;2023-04-24T11:16:38;9.90;99.90
61807;DHT22;47726;52.766;6.606;2023-04-24T11:24:37;9.80;99.90
61807;DHT22;47726;52.766;6.606;2023-04-24T11:29:49;9.80;99.90
61807;DHT22;47726;52.766;6.606;2023-04-24T11:35:00;9.70;99.90
61807;DHT22;47726;52.766;6.606;2023-04-24T11:37:38;9.80;99.90
61807;DHT22;47726;52.766;6.606;2023-04-24T11:40:06;9.80;99.90
61807;DHT22;47726;52.766;6.606;2023-04-24T11:42:36;9.80;99.90
61807;DHT22;47726;52.766;6.606;2023-04-24T11:47:32;9.90;99.90
61807;DHT22;47726;52.766;6.606;2023-04-24T11:49:59;9.90;99.90
61807;DHT22;47726;52.766;6.606;2023-04-24T11:52:26;10.00;99.90
61807;DHT22;47726;52.766;6.606;2023-04-24T11:54:52;10.00;99.90
61807;DHT22;47726;52.766;6.606;2023-04-24T11:57:23;10.00;99.90
61807;DHT22;47726;52.766;6.606;2023-04-24T11:59:51;10.10;99.90
61807;DHT22;47726;52.766;6.606;2023-04-24T12:02:24;10.10;99.90
61807;DHT22;47726;52.766;6.606;2023-04-24T12:04:51;10.10;99.90
61807;DHT22;47726;52.766;6.606;2023-04-24T12:07:17;10.10;99.90
61807;DHT22;47726;52.766;6.606;2023-04-24T12:09:44;10.20;99.90
61807;DHT22;47726;52.766;6.606;2023-04-24T12:12:15;10.10;99.90
61807;DHT22;47726;52.766;6.606;2023-04-24T12:14:49;10.10;99.90
61807;DHT22;47726;52.766;6.606;2023-04-24T12:17:16;10.10;99.90
61807;DHT22;47726;52.766;6.606;2023-04-24T12:19:46;10.10;99.90
61807;DHT22;47726;52.766;6.606;2023-04-24T12:22:12;10.10;99.90
61807;DHT22;47726;52.766;6.606;2023-04-24T12:24:56;10.10;99.90
61807;DHT22;47726;52.766;6.606;2023-04-24T12:27:22;10.00;99.90
61807;DHT22;47726;52.766;6.606;2023-04-24T12:30:01;10.00;99.90
61807;DHT22;47726;52.766;6.606;2023-04-24T12:32:27;10.10;99.90
61807;DHT22;47726;52.766;6.606;2023-04-24T12:34:53;10.10;99.90
61807;DHT22;47726;52.766;6.606;2023-04-24T12:37:19;10.10;99.90
61807;DHT22;47726;52.766;6.606;2023-04-24T12:40:06;10.10;99.90
61807;DHT22;47726;52.766;6.606;2023-04-24T12:42:32;10.10;99.90
61807;DHT22;47726;52.766;6.606;2023-04-24T12:45:06;10.00;99.90
61807;DHT22;47726;52.766;6.606;2023-04-24T12:47:33;10.00;99.90
61807;DHT22;47726;52.766;6.606;2023-04-24T12:49:59;9.90;99.90
61807;DHT22;47726;52.766;6.606;2023-04-24T12:52:26;10.00;99.90
61807;DHT22;47726;52.766;6.606;2023-04-24T12:54:57;10.00;99.90
61807;DHT22;47726;52.766;6.606;2023-04-24T12:57:23;10.00;99.90
61807;DHT22;47726;52.766;6.606;2023-04-24T12:59:50;10.10;99.90
61807;DHT22;47726;52.766;6.606;2023-04-24T13:02:16;10.10;99.90
61807;DHT22;47726;52.766;6.606;2023-04-24T13:04:45;10.20;99.90
61807;DHT22;47726;52.766;6.606;2023-04-24T13:07:12;10.20;99.90
61807;DHT22;47726;52.766;6.606;2023-04-24T13:09:39;10.20;99.90
61807;DHT22;47726;52.766;6.606;2023-04-24T13:12:05;10.20;99.90
61807;DHT22;47726;52.766;6.606;2023-04-24T13:14:31;10.20;99.90
61807;DHT22;47726;52.766;6.606;2023-04-24T13:16:57;10.20;99.90
61807;DHT22;47726;52.766;6.606;2023-04-24T13:19:25;10.20;99.90
61807;DHT22;47726;52.766;6.606;2023-04-24T13:21:55;10.10;99.90
61807;DHT22;47726;52.766;6.606;2023-04-24T13:24:21;10.10;99.90
61807;DHT22;47726;52.766;6.606;2023-04-24T13:26:50;10.10;99.90
61807;DHT22;47726;52.766;6.606;2023-04-24T13:29:15;10.10;99.90
61807;DHT22;47726;52.766;6.606;2023-04-24T13:31:41;10.10;99.90
61807;DHT22;47726;52.766;6.606;2023-04-24T13:34:07;10.10;99.90
61807;DHT22;47726;52.766;6.606;2023-04-24T13:36:32;10.10;99.90
61807;DHT22;47726;52.766;6.606;2023-04-24T13:38:58;10.10;99.90
61807;DHT22;47726;52.766;6.606;2023-04-24T13:41:24;10.10;99.90
61807;DHT22;47726;52.766;6.606;2023-04-24T13:43:49;10.10;99.90
61807;DHT22;47726;52.766;6.606;2023-04-24T13:46:15;10.10;99.90
61807;DHT22;47726;52.766;6.606;2023-04-24T13:48:41;10.10;99.90
61807;DHT22;47726;52.766;6.606;2023-04-24T13:51:07;10.10;99.90
61807;DHT22;47726;52.766;6.606;2023-04-24T13:53:32;10.10;99.90
61807;DHT22;47726;52.766;6.606;2023-04-24T13:56:01;10.10;99.90
61807;DHT22;47726;52.766;6.606;2023-04-24T13:58:27;10.00;99.90
61807;DHT22;47726;52.766;6.606;2023-04-24T14:00:53;10.00;99.90
61807;DHT22;47726;52.766;6.606;2023-04-24T14:03:18;10.00;99.90
61807;DHT22;47726;52.766;6.606;2023-04-24T14:05:44;10.00;99.90
61807;DHT22;47726;52.766;6.606;2023-04-24T14:08:09;10.00;99.90
61807;DHT22;47726;52.766;6.606;2023-04-24T14:10:35;9.90;99.90
61807;DHT22;47726;52.766;6.606;2023-04-24T14:13:01;9.90;99.90
61807;DHT22;47726;52.766;6.606;2023-04-24T14:15:26;9.80;99.90
61807;DHT22;47726;52.766;6.606;2023-04-24T14:17:52;9.80;99.90
61807;DHT22;47726;52.766;6.606;2023-04-24T14:20:18;9.80;99.90
61807;DHT22;47726;52.766;6.606;2023-04-24T14:22:43;9.70;99.90
61807;DHT22;47726;52.766;6.606;2023-04-24T14:25:09;9.70;99.90
61807;DHT22;47726;52.766;6.606;2023-04-24T14:27:35;9.70;99.90
61807;DHT22;47726;52.766;6.606;2023-04-24T14:30:00;9.80;99.90
61807;DHT22;47726;52.766;6.606;2023-04-24T14:32:26;9.80;99.90
61807;DHT22;47726;52.766;6.606;2023-04-24T14:34:52;9.80;99.90
61807;DHT22;47726;52.766;6.606;2023-04-24T14:37:18;9.90;99.90
61807;DHT22;47726;52.766;6.606;2023-04-24T14:39:45;9.80;99.90
61807;DHT22;47726;52.766;6.606;2023-04-24T14:42:10;9.80;99.90
61807;DHT22;47726;52.766;6.606;2023-04-24T14:44:36;9.80;99.90
61807;DHT22;47726;52.766;6.606;2023-04-24T14:47:01;9.80;99.90
61807;DHT22;47726;52.766;6.606;2023-04-24T14:49:27;9.80;99.90
61807;DHT22;47726;52.766;6.606;2023-04-24T14:51:53;9.80;99.90
61807;DHT22;47726;52.766;6.606;2023-04-24T14:54:18;9.80;99.90
61807;DHT22;47726;52.766;6.606;2023-04-24T14:56:44;9.90;99.90
61807;DHT22;47726;52.766;6.606;2023-04-24T14:59:10;9.90;99.90
61807;DHT22;47726;52.766;6.606;2023-04-24T15:01:36;9.90;99.90
61807;DHT22;47726;52.766;6.606;2023-04-24T15:04:01;9.80;99.90
61807;DHT22;47726;52.766;6.606;2023-04-24T15:06:29;9.80;99.90
61807;DHT22;47726;52.766;6.606;2023-04-24T15:08:56;9.80;99.90
61807;DHT22;47726;52.766;6.606;2023-04-24T15:11:22;9.80;99.90
61807;DHT22;47726;52.766;6.606;2023-04-24T15:13:48;9.90;99.90
61807;DHT22;47726;52.766;6.606;2023-04-24T15:16:13;9.90;99.90
61807;DHT22;47726;52.766;6.606;2023-04-24T15:18:39;9.90;99.90
61807;DHT22;47726;52.766;6.606;2023-04-24T15:21:05;9.90;99.90
61807;DHT22;47726;52.766;6.606;2023-04-24T15:23:30;9.90;99.90
61807;DHT22;47726;52.766;6.606;2023-04-24T15:25:56;9.90;99.90
61807;DHT22;47726;52.766;6.606;2023-04-24T15:28:23;9.90;99.90
61807;DHT22;47726;52.766;6.606;2023-04-24T15:30:49;9.90;99.90
61807;DHT22;47726;52.766;6.606;2023-04-24T15:33:15;9.90;99.90
61807;DHT22;47726;52.766;6.606;2023-04-24T15:35:41;9.90;99.90
61807;DHT22;47726;52.766;6.606;2023-04-24T15:38:06;10.00;99.90
61807;DHT22;47726;52.766;6.606;2023-04-24T15:40:32;10.00;99.90
61807;DHT22;47726;52.766;6.606;2023-04-24T15:42:57;10.10;99.90
61807;DHT22;47726;52.766;6.606;2023-04-24T15:45:24;10.10;99.90
61807;DHT22;47726;52.766;6.606;2023-04-24T15:47:50;10.10;99.90